Ramona, Texas
Current Conditions -  °F | °C
As of 12:35 PM on Thursday 30 Oct 2014 (Local Time) from KT65 Reporting Station
Scattered Clouds Scattered Clouds  
Wind Chill: 86°   Ceiling: Unl
Heat Index: 87°   Visibility: 7mi
Dew Point: 64°   Wind: 6mph
Humidity: 47%   Direction: 150°SSE
Pressure: 30.07"   Gusts: NA
Location:  26.1701°N, 97.9943°W
Report Text: KT65 301735Z AUTO 15005KT 7SM SCT034 30/18 A3007 RMK AO2 T02990176
Loading
Personal Weather Stations






























Interactive Weather Map
Tropical Storm Tracking
New forecast layout! Learn more

10-Day Weather Forecast

Advertisements
Track Severe Weather on mobile